HKT weather

Phuket International Airport
Phuket, Phuket Province, Thailand

Public forecast

Using degrees Celsius for public forecast. Weather courtesy of forecast.io.

METAR (pilot weather report)

Retrieved 2019/04/21 22:30 UTC (9 minutes ago):

VTSP 212230Z 00000KT 8000 FEW020 27/24 Q1007 NOSIG

TAF (pilot weather forecast)

Retrieved 2019/04/21 18:37 UTC (4 hours ago):

TAF VTSP 211700Z 2118/2224 00000KT 8000 FEW020 BECMG 2200/2202 08006KT 9999 BECMG 2206/2208 28008KT